sensor_id;sensor_type;location;lat;lon;timestamp;P1;durP1;ratioP1;P2;durP2;ratioP2
22152;SDS011;11242;50.536;12.688;2023-04-24T00:00:40;2.47;;;2.28;;
22152;SDS011;11242;50.536;12.688;2023-04-24T00:03:06;3.40;;;2.30;;
22152;SDS011;11242;50.536;12.688;2023-04-24T00:05:32;2.17;;;1.98;;
22152;SDS011;11242;50.536;12.688;2023-04-24T00:07:57;3.97;;;2.20;;
22152;SDS011;11242;50.536;12.688;2023-04-24T00:10:23;2.60;;;2.30;;
22152;SDS011;11242;50.536;12.688;2023-04-24T00:12:49;2.85;;;2.30;;
22152;SDS011;11242;50.536;12.688;2023-04-24T00:15:14;3.75;;;2.55;;
22152;SDS011;11242;50.536;12.688;2023-04-24T00:17:40;2.63;;;2.28;;
22152;SDS011;11242;50.536;12.688;2023-04-24T00:20:06;2.38;;;2.10;;
22152;SDS011;11242;50.536;12.688;2023-04-24T00:22:32;2.63;;;2.17;;
22152;SDS011;11242;50.536;12.688;2023-04-24T00:24:58;2.50;;;2.00;;
22152;SDS011;11242;50.536;12.688;2023-04-24T00:27:23;2.20;;;2.00;;
22152;SDS011;11242;50.536;12.688;2023-04-24T00:29:49;2.65;;;1.85;;
22152;SDS011;11242;50.536;12.688;2023-04-24T00:32:15;2.72;;;1.88;;
22152;SDS011;11242;50.536;12.688;2023-04-24T00:34:41;1.80;;;1.70;;
22152;SDS011;11242;50.536;12.688;2023-04-24T00:37:07;3.60;;;1.75;;
22152;SDS011;11242;50.536;12.688;2023-04-24T00:39:32;1.95;;;1.77;;
22152;SDS011;11242;50.536;12.688;2023-04-24T00:41:58;1.98;;;1.80;;
22152;SDS011;11242;50.536;12.688;2023-04-24T00:44:24;2.05;;;1.60;;
22152;SDS011;11242;50.536;12.688;2023-04-24T00:46:49;2.45;;;1.77;;
22152;SDS011;11242;50.536;12.688;2023-04-24T00:49:19;2.10;;;1.73;;
22152;SDS011;11242;50.536;12.688;2023-04-24T00:51:46;1.88;;;1.70;;
22152;SDS011;11242;50.536;12.688;2023-04-24T00:54:15;2.65;;;1.80;;
22152;SDS011;11242;50.536;12.688;2023-04-24T00:56:41;3.35;;;1.90;;
22152;SDS011;11242;50.536;12.688;2023-04-24T00:59:08;2.85;;;1.65;;
22152;SDS011;11242;50.536;12.688;2023-04-24T01:01:35;2.92;;;1.83;;
22152;SDS011;11242;50.536;12.688;2023-04-24T01:04:02;1.73;;;1.50;;
22152;SDS011;11242;50.536;12.688;2023-04-24T01:06:28;1.98;;;1.80;;
22152;SDS011;11242;50.536;12.688;2023-04-24T01:08:56;2.95;;;1.48;;
22152;SDS011;11242;50.536;12.688;2023-04-24T01:11:23;1.90;;;1.70;;
22152;SDS011;11242;50.536;12.688;2023-04-24T01:13:50;2.50;;;1.80;;
22152;SDS011;11242;50.536;12.688;2023-04-24T01:16:16;1.95;;;1.67;;
22152;SDS011;11242;50.536;12.688;2023-04-24T01:18:44;2.53;;;1.90;;
22152;SDS011;11242;50.536;12.688;2023-04-24T01:21:10;2.78;;;1.70;;
22152;SDS011;11242;50.536;12.688;2023-04-24T01:23:40;1.90;;;1.75;;
22152;SDS011;11242;50.536;12.688;2023-04-24T01:26:05;4.03;;;1.52;;
22152;SDS011;11242;50.536;12.688;2023-04-24T01:28:31;4.97;;;1.70;;
22152;SDS011;11242;50.536;12.688;2023-04-24T01:30:56;2.85;;;1.80;;
22152;SDS011;11242;50.536;12.688;2023-04-24T01:33:22;3.28;;;1.90;;
22152;SDS011;11242;50.536;12.688;2023-04-24T01:35:48;2.00;;;1.80;;
22152;SDS011;11242;50.536;12.688;2023-04-24T01:38:14;2.42;;;1.70;;
22152;SDS011;11242;50.536;12.688;2023-04-24T01:40:40;2.22;;;2.03;;
22152;SDS011;11242;50.536;12.688;2023-04-24T01:43:05;3.65;;;2.20;;
22152;SDS011;11242;50.536;12.688;2023-04-24T01:45:31;3.65;;;2.17;;
22152;SDS011;11242;50.536;12.688;2023-04-24T01:47:57;2.08;;;1.98;;
22152;SDS011;11242;50.536;12.688;2023-04-24T01:50:23;2.78;;;2.30;;
22152;SDS011;11242;50.536;12.688;2023-04-24T01:52:49;2.30;;;2.10;;
22152;SDS011;11242;50.536;12.688;2023-04-24T01:55:15;3.33;;;2.47;;
22152;SDS011;11242;50.536;12.688;2023-04-24T01:57:40;2.80;;;2.15;;
22152;SDS011;11242;50.536;12.688;2023-04-24T02:00:06;2.35;;;2.10;;
22152;SDS011;11242;50.536;12.688;2023-04-24T02:02:41;4.00;;;2.10;;
22152;SDS011;11242;50.536;12.688;2023-04-24T02:05:07;2.72;;;2.10;;
22152;SDS011;11242;50.536;12.688;2023-04-24T02:07:35;3.55;;;2.05;;
22152;SDS011;11242;50.536;12.688;2023-04-24T02:10:01;2.65;;;2.10;;
22152;SDS011;11242;50.536;12.688;2023-04-24T02:12:26;2.85;;;2.05;;
22152;SDS011;11242;50.536;12.688;2023-04-24T02:14:52;3.30;;;2.25;;
22152;SDS011;11242;50.536;12.688;2023-04-24T02:17:18;2.58;;;2.10;;
22152;SDS011;11242;50.536;12.688;2023-04-24T02:19:44;2.42;;;2.20;;
22152;SDS011;11242;50.536;12.688;2023-04-24T02:22:09;3.75;;;2.20;;
22152;SDS011;11242;50.536;12.688;2023-04-24T02:24:35;2.63;;;2.20;;
22152;SDS011;11242;50.536;12.688;2023-04-24T02:27:02;2.65;;;2.20;;
22152;SDS011;11242;50.536;12.688;2023-04-24T02:29:27;2.67;;;2.20;;
22152;SDS011;11242;50.536;12.688;2023-04-24T02:31:54;2.55;;;2.33;;
22152;SDS011;11242;50.536;12.688;2023-04-24T02:34:19;3.10;;;2.22;;
22152;SDS011;11242;50.536;12.688;2023-04-24T02:36:45;3.13;;;2.30;;
22152;SDS011;11242;50.536;12.688;2023-04-24T02:39:10;3.35;;;2.50;;
22152;SDS011;11242;50.536;12.688;2023-04-24T02:41:38;5.45;;;2.20;;
22152;SDS011;11242;50.536;12.688;2023-04-24T02:44:03;2.75;;;2.22;;
22152;SDS011;11242;50.536;12.688;2023-04-24T02:46:29;3.65;;;2.30;;
22152;SDS011;11242;50.536;12.688;2023-04-24T02:48:54;2.42;;;2.22;;
22152;SDS011;11242;50.536;12.688;2023-04-24T02:51:20;2.47;;;2.28;;
22152;SDS011;11242;50.536;12.688;2023-04-24T02:53:45;3.05;;;2.40;;
22152;SDS011;11242;50.536;12.688;2023-04-24T02:56:11;4.50;;;2.38;;
22152;SDS011;11242;50.536;12.688;2023-04-24T02:58:40;2.72;;;2.30;;
22152;SDS011;11242;50.536;12.688;2023-04-24T03:01:05;2.72;;;2.10;;
22152;SDS011;11242;50.536;12.688;2023-04-24T03:03:31;3.65;;;2.40;;
22152;SDS011;11242;50.536;12.688;2023-04-24T03:05:57;2.70;;;2.50;;
22152;SDS011;11242;50.536;12.688;2023-04-24T03:08:23;2.60;;;2.40;;
22152;SDS011;11242;50.536;12.688;2023-04-24T03:10:49;2.70;;;2.45;;
22152;SDS011;11242;50.536;12.688;2023-04-24T03:13:17;2.78;;;2.58;;
22152;SDS011;11242;50.536;12.688;2023-04-24T03:15:43;4.65;;;2.50;;
22152;SDS011;11242;50.536;12.688;2023-04-24T03:18:08;2.60;;;2.40;;
22152;SDS011;11242;50.536;12.688;2023-04-24T03:20:34;2.88;;;2.60;;
22152;SDS011;11242;50.536;12.688;2023-04-24T03:23:01;4.07;;;2.20;;
22152;SDS011;11242;50.536;12.688;2023-04-24T03:25:27;3.67;;;2.65;;
22152;SDS011;11242;50.536;12.688;2023-04-24T03:27:53;2.50;;;2.20;;
22152;SDS011;11242;50.536;12.688;2023-04-24T03:30:42;2.45;;;2.25;;
22152;SDS011;11242;50.536;12.688;2023-04-24T03:33:09;3.67;;;2.40;;
22152;SDS011;11242;50.536;12.688;2023-04-24T03:35:39;3.08;;;2.75;;
22152;SDS011;11242;50.536;12.688;2023-04-24T03:38:08;3.58;;;2.00;;
22152;SDS011;11242;50.536;12.688;2023-04-24T03:41:12;2.70;;;2.30;;
22152;SDS011;11242;50.536;12.688;2023-04-24T03:43:42;3.17;;;2.30;;
22152;SDS011;11242;50.536;12.688;2023-04-24T03:46:09;3.53;;;2.65;;
22152;SDS011;11242;50.536;12.688;2023-04-24T03:48:38;4.20;;;2.50;;
22152;SDS011;11242;50.536;12.688;2023-04-24T03:51:06;4.22;;;2.70;;
22152;SDS011;11242;50.536;12.688;2023-04-24T03:53:33;3.72;;;2.80;;
22152;SDS011;11242;50.536;12.688;2023-04-24T03:55:59;5.70;;;2.92;;
22152;SDS011;11242;50.536;12.688;2023-04-24T03:58:25;4.50;;;3.90;;
22152;SDS011;11242;50.536;12.688;2023-04-24T04:00:53;3.00;;;2.70;;
22152;SDS011;11242;50.536;12.688;2023-04-24T04:03:41;5.97;;;2.83;;
22152;SDS011;11242;50.536;12.688;2023-04-24T04:06:06;4.97;;;3.92;;
22152;SDS011;11242;50.536;12.688;2023-04-24T04:08:32;3.83;;;3.50;;
22152;SDS011;11242;50.536;12.688;2023-04-24T04:10:58;4.13;;;3.60;;
22152;SDS011;11242;50.536;12.688;2023-04-24T04:13:23;6.57;;;4.80;;
22152;SDS011;11242;50.536;12.688;2023-04-24T04:15:49;6.28;;;5.35;;
22152;SDS011;11242;50.536;12.688;2023-04-24T04:18:15;8.60;;;5.93;;
22152;SDS011;11242;50.536;12.688;2023-04-24T04:20:41;6.28;;;4.32;;
22152;SDS011;11242;50.536;12.688;2023-04-24T04:23:08;4.30;;;3.58;;
22152;SDS011;11242;50.536;12.688;2023-04-24T04:25:49;3.95;;;3.15;;
22152;SDS011;11242;50.536;12.688;2023-04-24T04:28:18;8.90;;;4.40;;
22152;SDS011;11242;50.536;12.688;2023-04-24T04:30:45;10.15;;;5.50;;
22152;SDS011;11242;50.536;12.688;2023-04-24T04:33:12;7.60;;;3.30;;
22152;SDS011;11242;50.536;12.688;2023-04-24T04:35:38;2.80;;;2.60;;
22152;SDS011;11242;50.536;12.688;2023-04-24T04:38:03;9.55;;;5.47;;
22152;SDS011;11242;50.536;12.688;2023-04-24T04:40:48;7.57;;;4.82;;
22152;SDS011;11242;50.536;12.688;2023-04-24T04:43:16;4.78;;;3.72;;
22152;SDS011;11242;50.536;12.688;2023-04-24T04:45:48;6.15;;;3.83;;
22152;SDS011;11242;50.536;12.688;2023-04-24T04:48:35;6.95;;;3.72;;
22152;SDS011;11242;50.536;12.688;2023-04-24T04:51:03;8.05;;;5.30;;
22152;SDS011;11242;50.536;12.688;2023-04-24T04:53:29;3.45;;;2.92;;
22152;SDS011;11242;50.536;12.688;2023-04-24T04:55:55;3.70;;;2.05;;
22152;SDS011;11242;50.536;12.688;2023-04-24T04:58:26;2.45;;;1.90;;
22152;SDS011;11242;50.536;12.688;2023-04-24T05:00:55;1.98;;;1.77;;
22152;SDS011;11242;50.536;12.688;2023-04-24T05:03:29;2.65;;;2.00;;
22152;SDS011;11242;50.536;12.688;2023-04-24T05:06:01;3.55;;;1.77;;
22152;SDS011;11242;50.536;12.688;2023-04-24T05:08:28;2.33;;;1.73;;
22152;SDS011;11242;50.536;12.688;2023-04-24T05:10:55;1.77;;;1.67;;
22152;SDS011;11242;50.536;12.688;2023-04-24T05:13:20;2.83;;;1.80;;
22152;SDS011;11242;50.536;12.688;2023-04-24T05:15:46;2.17;;;1.73;;
22152;SDS011;11242;50.536;12.688;2023-04-24T05:18:14;2.28;;;1.40;;
22152;SDS011;11242;50.536;12.688;2023-04-24T05:20:40;3.58;;;1.80;;
22152;SDS011;11242;50.536;12.688;2023-04-24T05:23:09;3.22;;;1.80;;
22152;SDS011;11242;50.536;12.688;2023-04-24T05:25:36;5.03;;;1.75;;
22152;SDS011;11242;50.536;12.688;2023-04-24T05:28:07;6.63;;;3.83;;
22152;SDS011;11242;50.536;12.688;2023-04-24T05:30:33;4.30;;;2.17;;
22152;SDS011;11242;50.536;12.688;2023-04-24T05:32:59;4.55;;;1.73;;
22152;SDS011;11242;50.536;12.688;2023-04-24T05:35:25;3.75;;;1.70;;
22152;SDS011;11242;50.536;12.688;2023-04-24T05:37:50;2.50;;;1.83;;
22152;SDS011;11242;50.536;12.688;2023-04-24T05:40:16;7.30;;;2.35;;
22152;SDS011;11242;50.536;12.688;2023-04-24T05:42:42;5.35;;;3.53;;
22152;SDS011;11242;50.536;12.688;2023-04-24T05:45:08;2.90;;;1.80;;
22152;SDS011;11242;50.536;12.688;2023-04-24T05:47:36;2.40;;;1.60;;
22152;SDS011;11242;50.536;12.688;2023-04-24T05:50:01;4.50;;;2.40;;
22152;SDS011;11242;50.536;12.688;2023-04-24T05:52:28;3.10;;;2.33;;
22152;SDS011;11242;50.536;12.688;2023-04-24T05:54:53;3.72;;;2.42;;
22152;SDS011;11242;50.536;12.688;2023-04-24T05:57:22;4.40;;;2.60;;
22152;SDS011;11242;50.536;12.688;2023-04-24T05:59:54;1.83;;;1.73;;
22152;SDS011;11242;50.536;12.688;2023-04-24T06:02:20;2.63;;;2.22;;
22152;SDS011;11242;50.536;12.688;2023-04-24T06:04:46;4.93;;;1.63;;
22152;SDS011;11242;50.536;12.688;2023-04-24T06:07:12;3.50;;;2.45;;
22152;SDS011;11242;50.536;12.688;2023-04-24T06:09:40;3.25;;;1.50;;
22152;SDS011;11242;50.536;12.688;2023-04-24T06:12:06;1.65;;;1.38;;
22152;SDS011;11242;50.536;12.688;2023-04-24T06:14:45;1.52;;;1.42;;
22152;SDS011;11242;50.536;12.688;2023-04-24T06:17:16;1.90;;;1.15;;
22152;SDS011;11242;50.536;12.688;2023-04-24T06:19:42;1.55;;;1.27;;
22152;SDS011;11242;50.536;12.688;2023-04-24T06:22:08;2.15;;;1.20;;
22152;SDS011;11242;50.536;12.688;2023-04-24T06:24:33;1.67;;;1.50;;
22152;SDS011;11242;50.536;12.688;2023-04-24T06:26:59;4.78;;;1.85;;
22152;SDS011;11242;50.536;12.688;2023-04-24T06:29:26;7.72;;;2.10;;
22152;SDS011;11242;50.536;12.688;2023-04-24T06:31:52;2.65;;;1.45;;
22152;SDS011;11242;50.536;12.688;2023-04-24T06:34:18;2.53;;;1.20;;
22152;SDS011;11242;50.536;12.688;2023-04-24T06:36:43;2.08;;;1.30;;
22152;SDS011;11242;50.536;12.688;2023-04-24T06:39:09;2.38;;;1.30;;
22152;SDS011;11242;50.536;12.688;2023-04-24T06:41:34;1.83;;;1.27;;
22152;SDS011;11242;50.536;12.688;2023-04-24T06:44:00;4.28;;;1.25;;
22152;SDS011;11242;50.536;12.688;2023-04-24T06:46:26;3.08;;;1.20;;
22152;SDS011;11242;50.536;12.688;2023-04-24T06:48:53;2.88;;;1.30;;
22152;SDS011;11242;50.536;12.688;2023-04-24T06:51:25;2.97;;;1.63;;
22152;SDS011;11242;50.536;12.688;2023-04-24T06:53:52;2.05;;;1.33;;
22152;SDS011;11242;50.536;12.688;2023-04-24T06:56:18;2.85;;;1.50;;
22152;SDS011;11242;50.536;12.688;2023-04-24T06:58:45;2.38;;;1.45;;
22152;SDS011;11242;50.536;12.688;2023-04-24T07:01:11;2.55;;;1.33;;
22152;SDS011;11242;50.536;12.688;2023-04-24T07:03:37;2.85;;;2.05;;
22152;SDS011;11242;50.536;12.688;2023-04-24T07:06:03;3.17;;;1.63;;
22152;SDS011;11242;50.536;12.688;2023-04-24T07:08:29;3.03;;;2.10;;
22152;SDS011;11242;50.536;12.688;2023-04-24T07:10:55;2.53;;;1.50;;
22152;SDS011;11242;50.536;12.688;2023-04-24T07:13:21;3.58;;;1.48;;
22152;SDS011;11242;50.536;12.688;2023-04-24T07:15:47;1.67;;;1.58;;
22152;SDS011;11242;50.536;12.688;2023-04-24T07:18:15;2.80;;;1.45;;
22152;SDS011;11242;50.536;12.688;2023-04-24T07:20:41;4.30;;;1.40;;
22152;SDS011;11242;50.536;12.688;2023-04-24T07:23:07;2.97;;;1.42;;
22152;SDS011;11242;50.536;12.688;2023-04-24T07:25:32;4.45;;;1.50;;
22152;SDS011;11242;50.536;12.688;2023-04-24T07:27:58;1.73;;;1.40;;
22152;SDS011;11242;50.536;12.688;2023-04-24T07:30:24;2.78;;;1.50;;
22152;SDS011;11242;50.536;12.688;2023-04-24T07:32:50;1.70;;;1.27;;
22152;SDS011;11242;50.536;12.688;2023-04-24T07:35:16;3.55;;;1.23;;
22152;SDS011;11242;50.536;12.688;2023-04-24T07:37:41;4.63;;;1.70;;
22152;SDS011;11242;50.536;12.688;2023-04-24T07:40:11;2.00;;;1.27;;
22152;SDS011;11242;50.536;12.688;2023-04-24T07:42:37;2.53;;;1.30;;
22152;SDS011;11242;50.536;12.688;2023-04-24T07:45:03;1.30;;;1.20;;
22152;SDS011;11242;50.536;12.688;2023-04-24T07:47:29;3.10;;;1.30;;
22152;SDS011;11242;50.536;12.688;2023-04-24T07:49:55;3.67;;;1.15;;
22152;SDS011;11242;50.536;12.688;2023-04-24T07:52:21;2.38;;;1.33;;
22152;SDS011;11242;50.536;12.688;2023-04-24T07:54:46;3.15;;;1.50;;
22152;SDS011;11242;50.536;12.688;2023-04-24T07:57:12;1.33;;;1.00;;
22152;SDS011;11242;50.536;12.688;2023-04-24T07:59:38;2.55;;;1.40;;
22152;SDS011;11242;50.536;12.688;2023-04-24T08:02:04;1.63;;;1.13;;
22152;SDS011;11242;50.536;12.688;2023-04-24T08:04:31;1.63;;;1.10;;
22152;SDS011;11242;50.536;12.688;2023-04-24T08:06:57;3.22;;;1.23;;
22152;SDS011;11242;50.536;12.688;2023-04-24T08:09:22;2.65;;;1.23;;
22152;SDS011;11242;50.536;12.688;2023-04-24T08:11:48;2.20;;;1.08;;
22152;SDS011;11242;50.536;12.688;2023-04-24T08:14:13;3.15;;;1.40;;
22152;SDS011;11242;50.536;12.688;2023-04-24T08:16:40;3.30;;;1.20;;
22152;SDS011;11242;50.536;12.688;2023-04-24T08:19:06;4.68;;;1.27;;
22152;SDS011;11242;50.536;12.688;2023-04-24T08:21:31;1.88;;;1.00;;
22152;SDS011;11242;50.536;12.688;2023-04-24T08:23:57;3.03;;;1.30;;
22152;SDS011;11242;50.536;12.688;2023-04-24T08:26:23;1.40;;;1.30;;
22152;SDS011;11242;50.536;12.688;2023-04-24T08:28:49;1.77;;;1.02;;
22152;SDS011;11242;50.536;12.688;2023-04-24T08:31:14;2.88;;;1.10;;
22152;SDS011;11242;50.536;12.688;2023-04-24T08:33:40;1.38;;;1.20;;
22152;SDS011;11242;50.536;12.688;2023-04-24T08:36:06;2.28;;;1.10;;
22152;SDS011;11242;50.536;12.688;2023-04-24T08:38:32;1.33;;;1.00;;
22152;SDS011;11242;50.536;12.688;2023-04-24T08:40:59;1.77;;;1.50;;
22152;SDS011;11242;50.536;12.688;2023-04-24T08:43:26;3.22;;;1.50;;
22152;SDS011;11242;50.536;12.688;2023-04-24T08:45:52;3.70;;;1.10;;
22152;SDS011;11242;50.536;12.688;2023-04-24T08:48:20;9.65;;;2.10;;
22152;SDS011;11242;50.536;12.688;2023-04-24T08:50:47;5.82;;;1.63;;
22152;SDS011;11242;50.536;12.688;2023-04-24T08:53:15;1.85;;;1.15;;
22152;SDS011;11242;50.536;12.688;2023-04-24T08:55:41;1.95;;;1.20;;
22152;SDS011;11242;50.536;12.688;2023-04-24T08:58:10;1.40;;;1.10;;
22152;SDS011;11242;50.536;12.688;2023-04-24T09:00:35;1.48;;;0.95;;
22152;SDS011;11242;50.536;12.688;2023-04-24T09:03:03;1.10;;;1.00;;
22152;SDS011;11242;50.536;12.688;2023-04-24T09:05:30;3.42;;;1.23;;
22152;SDS011;11242;50.536;12.688;2023-04-24T09:07:57;2.33;;;0.90;;
22152;SDS011;11242;50.536;12.688;2023-04-24T09:10:26;5.93;;;1.33;;
22152;SDS011;11242;50.536;12.688;2023-04-24T09:12:55;7.80;;;1.77;;
22152;SDS011;11242;50.536;12.688;2023-04-24T09:15:23;0.95;;;0.85;;
22152;SDS011;11242;50.536;12.688;2023-04-24T09:17:49;1.00;;;0.90;;
22152;SDS011;11242;50.536;12.688;2023-04-24T09:20:15;1.27;;;0.90;;
22152;SDS011;11242;50.536;12.688;2023-04-24T09:22:41;0.80;;;0.80;;
22152;SDS011;11242;50.536;12.688;2023-04-24T09:25:09;4.88;;;0.98;;
22152;SDS011;11242;50.536;12.688;2023-04-24T09:27:38;0.93;;;0.93;;
22152;SDS011;11242;50.536;12.688;2023-04-24T09:30:07;1.27;;;1.00;;
22152;SDS011;11242;50.536;12.688;2023-04-24T09:32:33;1.30;;;1.20;;
22152;SDS011;11242;50.536;12.688;2023-04-24T09:35:09;3.03;;;1.25;;
22152;SDS011;11242;50.536;12.688;2023-04-24T09:37:37;2.90;;;1.20;;
22152;SDS011;11242;50.536;12.688;2023-04-24T09:40:14;0.90;;;0.90;;
22152;SDS011;11242;50.536;12.688;2023-04-24T09:42:43;2.20;;;1.33;;
22152;SDS011;11242;50.536;12.688;2023-04-24T09:45:18;0.85;;;0.80;;
22152;SDS011;11242;50.536;12.688;2023-04-24T09:47:45;1.15;;;0.95;;
22152;SDS011;11242;50.536;12.688;2023-04-24T09:52:44;2.03;;;1.10;;
22152;SDS011;11242;50.536;12.688;2023-04-24T09:55:19;1.92;;;1.00;;
22152;SDS011;11242;50.536;12.688;2023-04-24T10:00:18;1.77;;;1.23;;
22152;SDS011;11242;50.536;12.688;2023-04-24T10:02:50;2.80;;;1.20;;
22152;SDS011;11242;50.536;12.688;2023-04-24T10:05:27;2.45;;;1.20;;
22152;SDS011;11242;50.536;12.688;2023-04-24T10:08:03;1.65;;;1.23;;
22152;SDS011;11242;50.536;12.688;2023-04-24T10:10:30;1.30;;;1.20;;
22152;SDS011;11242;50.536;12.688;2023-04-24T10:12:57;1.63;;;1.20;;
22152;SDS011;11242;50.536;12.688;2023-04-24T10:15:22;2.08;;;1.10;;
22152;SDS011;11242;50.536;12.688;2023-04-24T10:17:49;1.30;;;1.20;;
22152;SDS011;11242;50.536;12.688;2023-04-24T10:20:22;2.40;;;1.00;;
22152;SDS011;11242;50.536;12.688;2023-04-24T10:22:50;1.30;;;1.20;;
22152;SDS011;11242;50.536;12.688;2023-04-24T10:25:18;1.75;;;1.10;;
22152;SDS011;11242;50.536;12.688;2023-04-24T10:27:46;2.20;;;1.13;;
22152;SDS011;11242;50.536;12.688;2023-04-24T10:30:12;5.85;;;1.42;;
22152;SDS011;11242;50.536;12.688;2023-04-24T10:32:38;2.40;;;1.10;;
22152;SDS011;11242;50.536;12.688;2023-04-24T10:35:06;1.67;;;1.30;;
22152;SDS011;11242;50.536;12.688;2023-04-24T10:40:32;2.88;;;1.30;;
22152;SDS011;11242;50.536;12.688;2023-04-24T10:43:01;3.15;;;1.40;;
22152;SDS011;11242;50.536;12.688;2023-04-24T10:45:27;1.48;;;1.38;;
22152;SDS011;11242;50.536;12.688;2023-04-24T10:47:57;1.08;;;1.08;;
22152;SDS011;11242;50.536;12.688;2023-04-24T10:50:41;1.52;;;1.27;;
22152;SDS011;11242;50.536;12.688;2023-04-24T10:53:12;7.78;;;1.70;;
22152;SDS011;11242;50.536;12.688;2023-04-24T10:55:43;4.20;;;1.52;;
22152;SDS011;11242;50.536;12.688;2023-04-24T10:58:14;2.08;;;1.50;;
22152;SDS011;11242;50.536;12.688;2023-04-24T11:00:41;3.50;;;1.40;;
22152;SDS011;11242;50.536;12.688;2023-04-24T11:03:26;2.30;;;1.48;;
22152;SDS011;11242;50.536;12.688;2023-04-24T11:11:10;2.35;;;1.90;;
22152;SDS011;11242;50.536;12.688;2023-04-24T11:16:34;5.03;;;1.90;;
22152;SDS011;11242;50.536;12.688;2023-04-24T11:21:54;4.03;;;2.10;;
22152;SDS011;11242;50.536;12.688;2023-04-24T11:29:45;3.00;;;1.60;;
22152;SDS011;11242;50.536;12.688;2023-04-24T11:32:18;1.40;;;1.30;;
22152;SDS011;11242;50.536;12.688;2023-04-24T11:34:47;1.60;;;1.50;;
22152;SDS011;11242;50.536;12.688;2023-04-24T11:37:14;3.78;;;1.77;;
22152;SDS011;11242;50.536;12.688;2023-04-24T11:39:40;2.20;;;1.80;;
22152;SDS011;11242;50.536;12.688;2023-04-24T11:42:06;16.77;;;2.08;;
22152;SDS011;11242;50.536;12.688;2023-04-24T11:44:33;1.90;;;1.73;;
22152;SDS011;11242;50.536;12.688;2023-04-24T11:47:02;2.00;;;1.65;;
22152;SDS011;11242;50.536;12.688;2023-04-24T11:49:32;1.70;;;1.60;;
22152;SDS011;11242;50.536;12.688;2023-04-24T11:51:57;2.13;;;1.45;;
22152;SDS011;11242;50.536;12.688;2023-04-24T11:54:26;1.90;;;1.80;;
22152;SDS011;11242;50.536;12.688;2023-04-24T11:56:52;2.80;;;1.50;;
22152;SDS011;11242;50.536;12.688;2023-04-24T11:59:17;16.95;;;2.65;;
22152;SDS011;11242;50.536;12.688;2023-04-24T12:01:46;7.82;;;2.08;;
22152;SDS011;11242;50.536;12.688;2023-04-24T12:04:13;2.55;;;2.00;;
22152;SDS011;11242;50.536;12.688;2023-04-24T12:07:00;5.03;;;1.80;;
22152;SDS011;11242;50.536;12.688;2023-04-24T12:09:26;2.08;;;1.88;;
22152;SDS011;11242;50.536;12.688;2023-04-24T12:11:52;2.97;;;1.90;;
22152;SDS011;11242;50.536;12.688;2023-04-24T12:14:22;2.35;;;1.70;;
22152;SDS011;11242;50.536;12.688;2023-04-24T12:16:48;1.90;;;1.80;;
22152;SDS011;11242;50.536;12.688;2023-04-24T12:19:21;2.13;;;1.80;;
22152;SDS011;11242;50.536;12.688;2023-04-24T12:24:26;3.03;;;1.80;;
22152;SDS011;11242;50.536;12.688;2023-04-24T12:26:52;3.08;;;1.75;;
22152;SDS011;11242;50.536;12.688;2023-04-24T12:29:21;3.17;;;1.70;;
22152;SDS011;11242;50.536;12.688;2023-04-24T12:31:47;1.83;;;1.70;;
22152;SDS011;11242;50.536;12.688;2023-04-24T12:34:20;1.85;;;1.65;;
22152;SDS011;11242;50.536;12.688;2023-04-24T12:36:47;3.45;;;1.73;;
22152;SDS011;11242;50.536;12.688;2023-04-24T12:39:19;1.90;;;1.70;;
22152;SDS011;11242;50.536;12.688;2023-04-24T12:41:58;3.33;;;2.10;;
22152;SDS011;11242;50.536;12.688;2023-04-24T12:44:31;1.98;;;1.77;;
22152;SDS011;11242;50.536;12.688;2023-04-24T12:46:59;2.10;;;1.90;;
22152;SDS011;11242;50.536;12.688;2023-04-24T12:49:25;2.30;;;1.90;;
22152;SDS011;11242;50.536;12.688;2023-04-24T12:51:51;8.10;;;2.08;;
22152;SDS011;11242;50.536;12.688;2023-04-24T12:54:16;2.10;;;2.00;;
22152;SDS011;11242;50.536;12.688;2023-04-24T12:56:42;2.20;;;2.00;;
22152;SDS011;11242;50.536;12.688;2023-04-24T12:59:08;2.50;;;2.30;;
22152;SDS011;11242;50.536;12.688;2023-04-24T13:01:33;2.50;;;2.20;;
22152;SDS011;11242;50.536;12.688;2023-04-24T13:03:59;3.65;;;2.33;;
22152;SDS011;11242;50.536;12.688;2023-04-24T13:06:24;2.80;;;2.03;;
22152;SDS011;11242;50.536;12.688;2023-04-24T13:08:51;2.10;;;1.90;;
22152;SDS011;11242;50.536;12.688;2023-04-24T13:11:17;2.30;;;2.10;;
22152;SDS011;11242;50.536;12.688;2023-04-24T13:13:43;4.90;;;2.05;;
22152;SDS011;11242;50.536;12.688;2023-04-24T13:16:08;2.15;;;1.95;;
22152;SDS011;11242;50.536;12.688;2023-04-24T13:18:34;2.20;;;2.00;;
22152;SDS011;11242;50.536;12.688;2023-04-24T13:20:59;2.63;;;1.77;;
22152;SDS011;11242;50.536;12.688;2023-04-24T13:23:25;2.67;;;1.67;;
22152;SDS011;11242;50.536;12.688;2023-04-24T13:25:51;2.00;;;1.65;;
22152;SDS011;11242;50.536;12.688;2023-04-24T13:28:16;1.73;;;1.60;;
22152;SDS011;11242;50.536;12.688;2023-04-24T13:30:42;1.85;;;1.70;;
22152;SDS011;11242;50.536;12.688;2023-04-24T13:33:08;1.85;;;1.50;;
22152;SDS011;11242;50.536;12.688;2023-04-24T13:35:34;1.70;;;1.60;;
22152;SDS011;11242;50.536;12.688;2023-04-24T13:37:59;2.08;;;1.70;;
22152;SDS011;11242;50.536;12.688;2023-04-24T13:40:26;3.33;;;1.80;;
22152;SDS011;11242;50.536;12.688;2023-04-24T13:42:52;4.32;;;1.60;;
22152;SDS011;11242;50.536;12.688;2023-04-24T13:45:18;6.97;;;1.92;;
22152;SDS011;11242;50.536;12.688;2023-04-24T13:47:43;2.47;;;1.40;;
22152;SDS011;11242;50.536;12.688;2023-04-24T13:50:09;4.03;;;1.80;;
22152;SDS011;11242;50.536;12.688;2023-04-24T13:52:35;2.72;;;1.77;;
22152;SDS011;11242;50.536;12.688;2023-04-24T13:55:00;2.42;;;1.85;;
22152;SDS011;11242;50.536;12.688;2023-04-24T13:57:26;1.65;;;1.55;;
22152;SDS011;11242;50.536;12.688;2023-04-24T13:59:53;3.42;;;1.95;;
22152;SDS011;11242;50.536;12.688;2023-04-24T14:02:20;3.50;;;2.00;;
22152;SDS011;11242;50.536;12.688;2023-04-24T14:04:46;5.80;;;2.05;;
22152;SDS011;11242;50.536;12.688;2023-04-24T14:07:13;4.00;;;2.30;;
22152;SDS011;11242;50.536;12.688;2023-04-24T14:09:38;4.38;;;3.95;;
22152;SDS011;11242;50.536;12.688;2023-04-24T14:12:04;2.97;;;2.50;;
22152;SDS011;11242;50.536;12.688;2023-04-24T14:14:30;5.78;;;4.53;;
22152;SDS011;11242;50.536;12.688;2023-04-24T14:16:56;6.53;;;2.40;;
22152;SDS011;11242;50.536;12.688;2023-04-24T14:19:22;3.42;;;2.20;;
22152;SDS011;11242;50.536;12.688;2023-04-24T14:21:47;22.90;;;3.40;;
22152;SDS011;11242;50.536;12.688;2023-04-24T14:24:13;8.40;;;2.75;;
22152;SDS011;11242;50.536;12.688;2023-04-24T14:26:39;2.95;;;2.42;;
22152;SDS011;11242;50.536;12.688;2023-04-24T14:29:04;5.30;;;2.97;;
22152;SDS011;11242;50.536;12.688;2023-04-24T14:31:30;2.50;;;2.30;;
22152;SDS011;11242;50.536;12.688;2023-04-24T14:33:56;3.33;;;2.60;;
22152;SDS011;11242;50.536;12.688;2023-04-24T14:36:22;2.72;;;2.53;;
22152;SDS011;11242;50.536;12.688;2023-04-24T14:38:49;3.47;;;3.17;;
22152;SDS011;11242;50.536;12.688;2023-04-24T14:41:14;4.60;;;3.20;;
22152;SDS011;11242;50.536;12.688;2023-04-24T14:43:40;4.07;;;2.85;;
22152;SDS011;11242;50.536;12.688;2023-04-24T14:46:06;5.32;;;2.70;;
22152;SDS011;11242;50.536;12.688;2023-04-24T14:48:31;3.13;;;2.65;;
22152;SDS011;11242;50.536;12.688;2023-04-24T14:50:57;4.30;;;2.50;;
22152;SDS011;11242;50.536;12.688;2023-04-24T14:53:23;3.08;;;2.78;;
22152;SDS011;11242;50.536;12.688;2023-04-24T14:55:49;4.15;;;2.38;;
22152;SDS011;11242;50.536;12.688;2023-04-24T14:58:14;2.70;;;2.33;;
22152;SDS011;11242;50.536;12.688;2023-04-24T15:00:40;4.55;;;2.70;;